sensor_id;sensor_type;location;lat;lon;timestamp;P1;durP1;ratioP1;P2;durP2;ratioP2
77726;SDS011;68312;53.502;10.030;2023-03-16T00:01:19;9.73;;;2.67;;
77726;SDS011;68312;53.502;10.030;2023-03-16T00:03:46;9.15;;;3.20;;
77726;SDS011;68312;53.502;10.030;2023-03-16T00:06:11;6.50;;;2.75;;
77726;SDS011;68312;53.502;10.030;2023-03-16T00:08:37;6.97;;;2.85;;
77726;SDS011;68312;53.502;10.030;2023-03-16T00:11:03;6.50;;;2.47;;
77726;SDS011;68312;53.502;10.030;2023-03-16T00:13:29;5.72;;;2.53;;
77726;SDS011;68312;53.502;10.030;2023-03-16T00:16:00;5.35;;;3.00;;
77726;SDS011;68312;53.502;10.030;2023-03-16T00:18:31;10.63;;;3.40;;
77726;SDS011;68312;53.502;10.030;2023-03-16T00:21:04;5.53;;;3.17;;
77726;SDS011;68312;53.502;10.030;2023-03-16T00:23:30;8.20;;;2.95;;
77726;SDS011;68312;53.502;10.030;2023-03-16T00:26:00;6.32;;;2.40;;
77726;SDS011;68312;53.502;10.030;2023-03-16T00:28:32;8.18;;;3.00;;
77726;SDS011;68312;53.502;10.030;2023-03-16T00:31:03;10.25;;;3.35;;
77726;SDS011;68312;53.502;10.030;2023-03-16T00:33:39;7.97;;;2.80;;
77726;SDS011;68312;53.502;10.030;2023-03-16T00:36:07;8.35;;;2.60;;
77726;SDS011;68312;53.502;10.030;2023-03-16T00:38:36;6.95;;;2.65;;
77726;SDS011;68312;53.502;10.030;2023-03-16T00:43:40;5.47;;;2.42;;
77726;SDS011;68312;53.502;10.030;2023-03-16T00:46:13;5.25;;;2.22;;
77726;SDS011;68312;53.502;10.030;2023-03-16T00:48:42;11.63;;;2.88;;
77726;SDS011;68312;53.502;10.030;2023-03-16T00:51:12;6.68;;;2.92;;
77726;SDS011;68312;53.502;10.030;2023-03-16T00:53:42;4.55;;;3.08;;
77726;SDS011;68312;53.502;10.030;2023-03-16T00:56:10;7.63;;;2.63;;
77726;SDS011;68312;53.502;10.030;2023-03-16T00:58:40;11.50;;;3.20;;
77726;SDS011;68312;53.502;10.030;2023-03-16T01:01:09;8.48;;;2.60;;
77726;SDS011;68312;53.502;10.030;2023-03-16T01:03:43;8.10;;;3.42;;
77726;SDS011;68312;53.502;10.030;2023-03-16T01:06:12;5.90;;;2.83;;
77726;SDS011;68312;53.502;10.030;2023-03-16T01:08:41;9.20;;;3.78;;
77726;SDS011;68312;53.502;10.030;2023-03-16T01:11:09;6.50;;;3.20;;
77726;SDS011;68312;53.502;10.030;2023-03-16T01:13:41;7.95;;;3.03;;
77726;SDS011;68312;53.502;10.030;2023-03-16T01:16:08;6.43;;;3.70;;
77726;SDS011;68312;53.502;10.030;2023-03-16T01:18:35;7.40;;;3.67;;
77726;SDS011;68312;53.502;10.030;2023-03-16T01:21:00;7.70;;;3.00;;
77726;SDS011;68312;53.502;10.030;2023-03-16T01:23:29;8.30;;;3.22;;
77726;SDS011;68312;53.502;10.030;2023-03-16T01:25:55;11.00;;;3.47;;
77726;SDS011;68312;53.502;10.030;2023-03-16T01:28:23;13.43;;;3.50;;
77726;SDS011;68312;53.502;10.030;2023-03-16T01:30:52;5.65;;;3.00;;
77726;SDS011;68312;53.502;10.030;2023-03-16T01:33:26;9.80;;;3.53;;
77726;SDS011;68312;53.502;10.030;2023-03-16T01:36:00;5.85;;;2.83;;
77726;SDS011;68312;53.502;10.030;2023-03-16T01:38:35;5.43;;;3.10;;
77726;SDS011;68312;53.502;10.030;2023-03-16T01:41:01;9.40;;;3.67;;
77726;SDS011;68312;53.502;10.030;2023-03-16T01:43:29;7.55;;;2.75;;
77726;SDS011;68312;53.502;10.030;2023-03-16T01:48:29;7.80;;;2.83;;
77726;SDS011;68312;53.502;10.030;2023-03-16T01:57:10;8.07;;;3.50;;
77726;SDS011;68312;53.502;10.030;2023-03-16T02:02:34;8.18;;;2.90;;
77726;SDS011;68312;53.502;10.030;2023-03-16T02:05:11;9.38;;;3.05;;
77726;SDS011;68312;53.502;10.030;2023-03-16T02:10:48;5.07;;;2.72;;
77726;SDS011;68312;53.502;10.030;2023-03-16T02:13:18;6.40;;;2.88;;
77726;SDS011;68312;53.502;10.030;2023-03-16T02:15:47;7.15;;;2.90;;
77726;SDS011;68312;53.502;10.030;2023-03-16T02:18:13;7.18;;;2.63;;
77726;SDS011;68312;53.502;10.030;2023-03-16T02:23:30;10.13;;;3.00;;
77726;SDS011;68312;53.502;10.030;2023-03-16T02:25:59;3.90;;;2.08;;
77726;SDS011;68312;53.502;10.030;2023-03-16T02:29:05;7.43;;;2.75;;
77726;SDS011;68312;53.502;10.030;2023-03-16T02:32:00;5.53;;;2.33;;
77726;SDS011;68312;53.502;10.030;2023-03-16T02:34:30;5.93;;;2.63;;
77726;SDS011;68312;53.502;10.030;2023-03-16T02:36:56;3.63;;;2.03;;
77726;SDS011;68312;53.502;10.030;2023-03-16T02:39:24;4.45;;;2.63;;
77726;SDS011;68312;53.502;10.030;2023-03-16T02:41:50;7.47;;;2.72;;
77726;SDS011;68312;53.502;10.030;2023-03-16T02:44:18;5.90;;;2.30;;
77726;SDS011;68312;53.502;10.030;2023-03-16T02:46:55;6.13;;;2.40;;
77726;SDS011;68312;53.502;10.030;2023-03-16T02:49:37;9.48;;;2.97;;
77726;SDS011;68312;53.502;10.030;2023-03-16T02:52:09;7.10;;;2.58;;
77726;SDS011;68312;53.502;10.030;2023-03-16T02:54:35;4.95;;;2.30;;
77726;SDS011;68312;53.502;10.030;2023-03-16T02:57:02;9.00;;;2.15;;
77726;SDS011;68312;53.502;10.030;2023-03-16T02:59:28;5.47;;;2.83;;
77726;SDS011;68312;53.502;10.030;2023-03-16T03:01:55;6.72;;;2.85;;
77726;SDS011;68312;53.502;10.030;2023-03-16T03:04:21;3.35;;;1.90;;
77726;SDS011;68312;53.502;10.030;2023-03-16T03:06:48;6.90;;;2.60;;
77726;SDS011;68312;53.502;10.030;2023-03-16T03:09:15;6.97;;;2.38;;
77726;SDS011;68312;53.502;10.030;2023-03-16T03:11:42;4.95;;;2.28;;
77726;SDS011;68312;53.502;10.030;2023-03-16T03:14:10;5.22;;;2.13;;
77726;SDS011;68312;53.502;10.030;2023-03-16T03:16:37;4.88;;;2.28;;
77726;SDS011;68312;53.502;10.030;2023-03-16T03:19:02;4.50;;;2.40;;
77726;SDS011;68312;53.502;10.030;2023-03-16T03:21:28;10.20;;;3.08;;
77726;SDS011;68312;53.502;10.030;2023-03-16T03:23:53;6.78;;;2.70;;
77726;SDS011;68312;53.502;10.030;2023-03-16T03:26:19;5.68;;;2.42;;
77726;SDS011;68312;53.502;10.030;2023-03-16T03:28:45;3.38;;;2.25;;
77726;SDS011;68312;53.502;10.030;2023-03-16T03:31:18;5.88;;;2.00;;
77726;SDS011;68312;53.502;10.030;2023-03-16T03:33:46;4.40;;;2.10;;
77726;SDS011;68312;53.502;10.030;2023-03-16T03:36:13;4.38;;;2.50;;
77726;SDS011;68312;53.502;10.030;2023-03-16T03:38:39;7.13;;;2.97;;
77726;SDS011;68312;53.502;10.030;2023-03-16T03:41:05;4.72;;;2.35;;
77726;SDS011;68312;53.502;10.030;2023-03-16T03:43:31;5.32;;;2.65;;
77726;SDS011;68312;53.502;10.030;2023-03-16T03:45:58;6.60;;;2.72;;
77726;SDS011;68312;53.502;10.030;2023-03-16T03:48:27;5.93;;;2.85;;
77726;SDS011;68312;53.502;10.030;2023-03-16T03:50:53;6.68;;;2.40;;
77726;SDS011;68312;53.502;10.030;2023-03-16T03:53:19;8.85;;;2.47;;
77726;SDS011;68312;53.502;10.030;2023-03-16T03:55:45;7.40;;;2.88;;
77726;SDS011;68312;53.502;10.030;2023-03-16T03:58:13;8.98;;;3.30;;
77726;SDS011;68312;53.502;10.030;2023-03-16T04:00:38;7.50;;;2.75;;
77726;SDS011;68312;53.502;10.030;2023-03-16T04:03:04;8.38;;;2.75;;
77726;SDS011;68312;53.502;10.030;2023-03-16T04:05:30;9.07;;;3.33;;
77726;SDS011;68312;53.502;10.030;2023-03-16T04:07:56;6.45;;;3.20;;
77726;SDS011;68312;53.502;10.030;2023-03-16T04:10:26;8.57;;;2.58;;
77726;SDS011;68312;53.502;10.030;2023-03-16T04:12:55;8.65;;;3.10;;
77726;SDS011;68312;53.502;10.030;2023-03-16T04:15:22;4.95;;;2.30;;
77726;SDS011;68312;53.502;10.030;2023-03-16T04:17:49;5.18;;;2.90;;
77726;SDS011;68312;53.502;10.030;2023-03-16T04:20:16;5.80;;;2.83;;
77726;SDS011;68312;53.502;10.030;2023-03-16T04:22:47;5.45;;;2.70;;
77726;SDS011;68312;53.502;10.030;2023-03-16T04:25:14;4.72;;;2.60;;
77726;SDS011;68312;53.502;10.030;2023-03-16T04:27:42;5.53;;;2.88;;
77726;SDS011;68312;53.502;10.030;2023-03-16T04:30:11;6.78;;;2.70;;
77726;SDS011;68312;53.502;10.030;2023-03-16T04:32:39;4.40;;;2.63;;
77726;SDS011;68312;53.502;10.030;2023-03-16T04:35:05;5.28;;;2.70;;
77726;SDS011;68312;53.502;10.030;2023-03-16T04:37:32;5.88;;;2.70;;
77726;SDS011;68312;53.502;10.030;2023-03-16T04:39:59;9.13;;;3.38;;
77726;SDS011;68312;53.502;10.030;2023-03-16T04:42:28;5.68;;;2.20;;
77726;SDS011;68312;53.502;10.030;2023-03-16T04:44:54;7.97;;;2.13;;
77726;SDS011;68312;53.502;10.030;2023-03-16T04:47:20;5.85;;;2.70;;
77726;SDS011;68312;53.502;10.030;2023-03-16T04:49:47;3.38;;;2.35;;
77726;SDS011;68312;53.502;10.030;2023-03-16T04:52:12;4.55;;;2.72;;
77726;SDS011;68312;53.502;10.030;2023-03-16T04:54:38;6.68;;;2.45;;
77726;SDS011;68312;53.502;10.030;2023-03-16T04:57:03;4.85;;;2.20;;
77726;SDS011;68312;53.502;10.030;2023-03-16T04:59:29;4.22;;;2.45;;
77726;SDS011;68312;53.502;10.030;2023-03-16T05:01:55;8.00;;;2.90;;
77726;SDS011;68312;53.502;10.030;2023-03-16T05:04:21;5.97;;;2.25;;
77726;SDS011;68312;53.502;10.030;2023-03-16T05:06:48;6.30;;;2.53;;
77726;SDS011;68312;53.502;10.030;2023-03-16T05:09:14;9.52;;;2.67;;
77726;SDS011;68312;53.502;10.030;2023-03-16T05:11:39;5.28;;;2.20;;
77726;SDS011;68312;53.502;10.030;2023-03-16T05:14:05;6.53;;;2.22;;
77726;SDS011;68312;53.502;10.030;2023-03-16T05:16:31;5.53;;;2.42;;
77726;SDS011;68312;53.502;10.030;2023-03-16T05:19:00;8.68;;;2.38;;
77726;SDS011;68312;53.502;10.030;2023-03-16T05:21:26;6.50;;;2.67;;
77726;SDS011;68312;53.502;10.030;2023-03-16T05:23:55;4.70;;;2.58;;
77726;SDS011;68312;53.502;10.030;2023-03-16T05:26:22;4.95;;;2.35;;
77726;SDS011;68312;53.502;10.030;2023-03-16T05:28:49;5.18;;;2.40;;
77726;SDS011;68312;53.502;10.030;2023-03-16T05:31:15;5.50;;;2.45;;
77726;SDS011;68312;53.502;10.030;2023-03-16T05:33:42;9.13;;;1.73;;
77726;SDS011;68312;53.502;10.030;2023-03-16T05:36:09;3.70;;;2.25;;
77726;SDS011;68312;53.502;10.030;2023-03-16T05:38:35;9.77;;;2.50;;
77726;SDS011;68312;53.502;10.030;2023-03-16T05:41:03;4.80;;;2.10;;
77726;SDS011;68312;53.502;10.030;2023-03-16T05:43:29;6.07;;;1.98;;
77726;SDS011;68312;53.502;10.030;2023-03-16T05:45:56;5.13;;;2.00;;
77726;SDS011;68312;53.502;10.030;2023-03-16T05:48:22;5.60;;;2.55;;
77726;SDS011;68312;53.502;10.030;2023-03-16T05:50:51;6.35;;;2.72;;
77726;SDS011;68312;53.502;10.030;2023-03-16T05:53:17;7.80;;;2.30;;
77726;SDS011;68312;53.502;10.030;2023-03-16T05:55:44;6.60;;;2.70;;
77726;SDS011;68312;53.502;10.030;2023-03-16T05:58:19;4.55;;;2.03;;
77726;SDS011;68312;53.502;10.030;2023-03-16T06:00:45;5.78;;;2.60;;
77726;SDS011;68312;53.502;10.030;2023-03-16T06:03:11;8.13;;;2.58;;
77726;SDS011;68312;53.502;10.030;2023-03-16T06:05:37;6.40;;;2.67;;
77726;SDS011;68312;53.502;10.030;2023-03-16T06:08:02;7.10;;;2.78;;
77726;SDS011;68312;53.502;10.030;2023-03-16T06:10:28;6.53;;;2.83;;
77726;SDS011;68312;53.502;10.030;2023-03-16T06:12:54;6.60;;;2.83;;
77726;SDS011;68312;53.502;10.030;2023-03-16T06:15:21;3.97;;;1.88;;
77726;SDS011;68312;53.502;10.030;2023-03-16T06:17:49;5.25;;;2.30;;
77726;SDS011;68312;53.502;10.030;2023-03-16T06:20:15;9.98;;;2.85;;
77726;SDS011;68312;53.502;10.030;2023-03-16T06:22:41;8.02;;;2.35;;
77726;SDS011;68312;53.502;10.030;2023-03-16T06:25:09;6.53;;;2.35;;
77726;SDS011;68312;53.502;10.030;2023-03-16T06:27:37;6.60;;;2.17;;
77726;SDS011;68312;53.502;10.030;2023-03-16T06:30:04;5.43;;;2.00;;
77726;SDS011;68312;53.502;10.030;2023-03-16T06:32:32;4.88;;;2.17;;
77726;SDS011;68312;53.502;10.030;2023-03-16T06:35:00;5.07;;;2.40;;
77726;SDS011;68312;53.502;10.030;2023-03-16T06:37:27;3.80;;;2.25;;
77726;SDS011;68312;53.502;10.030;2023-03-16T06:39:55;4.07;;;2.17;;
77726;SDS011;68312;53.502;10.030;2023-03-16T06:42:20;8.07;;;2.47;;
77726;SDS011;68312;53.502;10.030;2023-03-16T06:44:46;5.57;;;2.60;;
77726;SDS011;68312;53.502;10.030;2023-03-16T06:47:12;7.47;;;2.20;;
77726;SDS011;68312;53.502;10.030;2023-03-16T06:49:38;4.45;;;1.95;;
77726;SDS011;68312;53.502;10.030;2023-03-16T06:52:04;3.38;;;2.08;;
77726;SDS011;68312;53.502;10.030;2023-03-16T06:54:30;5.43;;;2.10;;
77726;SDS011;68312;53.502;10.030;2023-03-16T06:56:58;4.20;;;2.17;;
77726;SDS011;68312;53.502;10.030;2023-03-16T06:59:25;5.35;;;2.00;;
77726;SDS011;68312;53.502;10.030;2023-03-16T07:01:51;4.43;;;2.17;;
77726;SDS011;68312;53.502;10.030;2023-03-16T07:04:16;7.63;;;2.10;;
77726;SDS011;68312;53.502;10.030;2023-03-16T07:06:42;5.10;;;2.00;;
77726;SDS011;68312;53.502;10.030;2023-03-16T07:09:07;4.45;;;2.38;;
77726;SDS011;68312;53.502;10.030;2023-03-16T07:11:33;4.20;;;1.90;;
77726;SDS011;68312;53.502;10.030;2023-03-16T07:13:59;5.63;;;2.38;;
77726;SDS011;68312;53.502;10.030;2023-03-16T07:16:27;4.20;;;2.30;;
77726;SDS011;68312;53.502;10.030;2023-03-16T07:18:52;5.70;;;2.33;;
77726;SDS011;68312;53.502;10.030;2023-03-16T07:21:18;7.45;;;2.20;;
77726;SDS011;68312;53.502;10.030;2023-03-16T07:23:45;7.28;;;2.03;;
77726;SDS011;68312;53.502;10.030;2023-03-16T07:26:12;5.68;;;2.60;;
77726;SDS011;68312;53.502;10.030;2023-03-16T07:28:38;7.82;;;1.92;;
77726;SDS011;68312;53.502;10.030;2023-03-16T07:31:04;3.30;;;1.92;;
77726;SDS011;68312;53.502;10.030;2023-03-16T07:33:31;6.70;;;2.30;;
77726;SDS011;68312;53.502;10.030;2023-03-16T07:35:59;5.50;;;2.25;;
77726;SDS011;68312;53.502;10.030;2023-03-16T07:38:28;8.43;;;2.45;;
77726;SDS011;68312;53.502;10.030;2023-03-16T07:40:56;8.48;;;2.22;;
77726;SDS011;68312;53.502;10.030;2023-03-16T07:43:25;4.88;;;2.42;;
77726;SDS011;68312;53.502;10.030;2023-03-16T07:45:52;7.53;;;2.28;;
77726;SDS011;68312;53.502;10.030;2023-03-16T07:48:17;6.38;;;2.30;;
77726;SDS011;68312;53.502;10.030;2023-03-16T07:50:48;3.53;;;1.77;;
77726;SDS011;68312;53.502;10.030;2023-03-16T07:53:14;6.15;;;1.90;;
77726;SDS011;68312;53.502;10.030;2023-03-16T07:55:41;7.50;;;2.40;;
77726;SDS011;68312;53.502;10.030;2023-03-16T07:58:08;8.80;;;2.28;;
77726;SDS011;68312;53.502;10.030;2023-03-16T08:00:35;5.43;;;2.15;;
77726;SDS011;68312;53.502;10.030;2023-03-16T08:03:02;3.90;;;1.83;;
77726;SDS011;68312;53.502;10.030;2023-03-16T08:05:29;4.22;;;2.03;;
77726;SDS011;68312;53.502;10.030;2023-03-16T08:07:56;6.70;;;1.98;;
77726;SDS011;68312;53.502;10.030;2023-03-16T08:10:23;5.55;;;1.63;;
77726;SDS011;68312;53.502;10.030;2023-03-16T08:12:49;4.07;;;1.80;;
77726;SDS011;68312;53.502;10.030;2023-03-16T08:15:15;4.97;;;1.80;;
77726;SDS011;68312;53.502;10.030;2023-03-16T08:17:42;8.13;;;2.35;;
77726;SDS011;68312;53.502;10.030;2023-03-16T08:20:09;6.80;;;2.20;;
77726;SDS011;68312;53.502;10.030;2023-03-16T08:22:38;5.70;;;1.92;;
77726;SDS011;68312;53.502;10.030;2023-03-16T08:25:10;5.38;;;2.38;;
77726;SDS011;68312;53.502;10.030;2023-03-16T08:27:38;3.35;;;1.67;;
77726;SDS011;68312;53.502;10.030;2023-03-16T08:30:06;5.25;;;1.90;;
77726;SDS011;68312;53.502;10.030;2023-03-16T08:32:36;6.65;;;2.05;;
77726;SDS011;68312;53.502;10.030;2023-03-16T08:35:05;2.28;;;1.33;;
77726;SDS011;68312;53.502;10.030;2023-03-16T08:37:34;7.72;;;1.65;;
77726;SDS011;68312;53.502;10.030;2023-03-16T08:40:00;4.75;;;1.48;;
77726;SDS011;68312;53.502;10.030;2023-03-16T08:42:27;4.40;;;1.55;;
77726;SDS011;68312;53.502;10.030;2023-03-16T08:44:53;3.55;;;1.95;;
77726;SDS011;68312;53.502;10.030;2023-03-16T08:47:23;6.43;;;2.15;;
77726;SDS011;68312;53.502;10.030;2023-03-16T08:49:49;5.18;;;2.17;;
77726;SDS011;68312;53.502;10.030;2023-03-16T08:52:16;4.90;;;1.52;;
77726;SDS011;68312;53.502;10.030;2023-03-16T08:54:42;4.00;;;1.40;;
77726;SDS011;68312;53.502;10.030;2023-03-16T08:57:08;7.10;;;1.92;;
77726;SDS011;68312;53.502;10.030;2023-03-16T08:59:34;5.55;;;1.55;;
77726;SDS011;68312;53.502;10.030;2023-03-16T09:02:01;5.50;;;1.95;;
77726;SDS011;68312;53.502;10.030;2023-03-16T09:04:34;3.53;;;1.42;;
77726;SDS011;68312;53.502;10.030;2023-03-16T09:06:59;4.97;;;1.60;;
77726;SDS011;68312;53.502;10.030;2023-03-16T09:09:26;3.03;;;1.23;;
77726;SDS011;68312;53.502;10.030;2023-03-16T09:11:52;3.67;;;1.42;;
77726;SDS011;68312;53.502;10.030;2023-03-16T09:14:18;4.70;;;1.10;;
77726;SDS011;68312;53.502;10.030;2023-03-16T09:16:44;3.78;;;1.10;;
77726;SDS011;68312;53.502;10.030;2023-03-16T09:19:10;4.57;;;1.35;;
77726;SDS011;68312;53.502;10.030;2023-03-16T09:21:35;3.58;;;1.33;;
77726;SDS011;68312;53.502;10.030;2023-03-16T09:24:02;3.83;;;1.20;;
77726;SDS011;68312;53.502;10.030;2023-03-16T09:26:28;5.68;;;1.20;;
77726;SDS011;68312;53.502;10.030;2023-03-16T09:28:53;3.60;;;1.30;;
77726;SDS011;68312;53.502;10.030;2023-03-16T09:31:20;4.57;;;1.70;;
77726;SDS011;68312;53.502;10.030;2023-03-16T09:33:46;4.95;;;1.38;;
77726;SDS011;68312;53.502;10.030;2023-03-16T09:36:12;3.17;;;1.27;;
77726;SDS011;68312;53.502;10.030;2023-03-16T09:38:39;5.10;;;1.05;;
77726;SDS011;68312;53.502;10.030;2023-03-16T09:44:30;3.35;;;0.95;;
77726;SDS011;68312;53.502;10.030;2023-03-16T09:47:46;4.85;;;1.45;;
77726;SDS011;68312;53.502;10.030;2023-03-16T09:50:27;3.40;;;1.00;;
77726;SDS011;68312;53.502;10.030;2023-03-16T09:55:50;2.30;;;0.80;;
77726;SDS011;68312;53.502;10.030;2023-03-16T09:58:25;3.28;;;0.88;;
77726;SDS011;68312;53.502;10.030;2023-03-16T10:01:02;2.05;;;0.80;;
77726;SDS011;68312;53.502;10.030;2023-03-16T10:07:09;3.30;;;0.85;;
77726;SDS011;68312;53.502;10.030;2023-03-16T10:12:38;2.58;;;0.70;;
77726;SDS011;68312;53.502;10.030;2023-03-16T10:15:15;4.18;;;0.90;;
77726;SDS011;68312;53.502;10.030;2023-03-16T10:17:58;2.25;;;0.70;;
77726;SDS011;68312;53.502;10.030;2023-03-16T10:20:39;4.63;;;1.45;;
77726;SDS011;68312;53.502;10.030;2023-03-16T10:23:17;3.47;;;0.68;;
77726;SDS011;68312;53.502;10.030;2023-03-16T10:25:53;2.08;;;0.60;;
77726;SDS011;68312;53.502;10.030;2023-03-16T10:28:22;1.52;;;1.00;;
77726;SDS011;68312;53.502;10.030;2023-03-16T10:30:52;2.53;;;0.80;;
77726;SDS011;68312;53.502;10.030;2023-03-16T10:33:27;3.25;;;0.70;;
77726;SDS011;68312;53.502;10.030;2023-03-16T10:39:04;3.83;;;0.82;;
77726;SDS011;68312;53.502;10.030;2023-03-16T10:41:39;1.98;;;0.85;;
77726;SDS011;68312;53.502;10.030;2023-03-16T10:46:49;4.10;;;0.70;;
77726;SDS011;68312;53.502;10.030;2023-03-16T10:49:36;3.28;;;0.73;;
77726;SDS011;68312;53.502;10.030;2023-03-16T10:52:12;2.75;;;0.60;;
77726;SDS011;68312;53.502;10.030;2023-03-16T10:54:56;1.40;;;0.50;;
77726;SDS011;68312;53.502;10.030;2023-03-16T10:57:26;2.28;;;0.70;;
77726;SDS011;68312;53.502;10.030;2023-03-16T11:00:04;5.25;;;0.90;;
77726;SDS011;68312;53.502;10.030;2023-03-16T11:02:40;1.88;;;0.40;;
77726;SDS011;68312;53.502;10.030;2023-03-16T11:05:10;2.20;;;0.60;;
77726;SDS011;68312;53.502;10.030;2023-03-16T11:10:56;2.30;;;0.70;;
77726;SDS011;68312;53.502;10.030;2023-03-16T11:13:35;1.73;;;0.52;;
77726;SDS011;68312;53.502;10.030;2023-03-16T11:16:20;1.92;;;0.57;;
77726;SDS011;68312;53.502;10.030;2023-03-16T11:18:57;0.98;;;0.30;;
77726;SDS011;68312;53.502;10.030;2023-03-16T11:21:51;0.75;;;0.40;;
77726;SDS011;68312;53.502;10.030;2023-03-16T11:27:41;2.03;;;0.57;;
77726;SDS011;68312;53.502;10.030;2023-03-16T11:30:45;3.42;;;0.65;;
77726;SDS011;68312;53.502;10.030;2023-03-16T11:33:36;1.15;;;0.40;;
77726;SDS011;68312;53.502;10.030;2023-03-16T11:39:18;1.83;;;0.50;;
77726;SDS011;68312;53.502;10.030;2023-03-16T11:42:40;3.40;;;0.70;;
77726;SDS011;68312;53.502;10.030;2023-03-16T11:51:47;1.38;;;0.40;;
77726;SDS011;68312;53.502;10.030;2023-03-16T12:13:25;1.55;;;0.52;;
77726;SDS011;68312;53.502;10.030;2023-03-16T12:16:44;2.05;;;0.55;;
77726;SDS011;68312;53.502;10.030;2023-03-16T12:22:43;1.60;;;0.55;;
77726;SDS011;68312;53.502;10.030;2023-03-16T12:25:20;1.98;;;0.68;;
77726;SDS011;68312;53.502;10.030;2023-03-16T12:27:58;2.80;;;0.32;;
77726;SDS011;68312;53.502;10.030;2023-03-16T12:36:54;1.77;;;0.50;;
77726;SDS011;68312;53.502;10.030;2023-03-16T12:39:50;1.13;;;0.40;;
77726;SDS011;68312;53.502;10.030;2023-03-16T12:42:59;1.85;;;0.40;;
77726;SDS011;68312;53.502;10.030;2023-03-16T12:48:35;1.60;;;0.25;;
77726;SDS011;68312;53.502;10.030;2023-03-16T12:51:13;1.70;;;0.50;;
77726;SDS011;68312;53.502;10.030;2023-03-16T12:53:53;2.15;;;0.45;;
77726;SDS011;68312;53.502;10.030;2023-03-16T12:56:33;1.70;;;0.57;;
77726;SDS011;68312;53.502;10.030;2023-03-16T12:59:14;1.33;;;0.40;;
77726;SDS011;68312;53.502;10.030;2023-03-16T13:01:48;1.35;;;0.40;;
77726;SDS011;68312;53.502;10.030;2023-03-16T13:04:23;3.58;;;0.70;;
77726;SDS011;68312;53.502;10.030;2023-03-16T13:07:08;1.13;;;0.38;;
77726;SDS011;68312;53.502;10.030;2023-03-16T13:09:45;3.05;;;0.47;;
77726;SDS011;68312;53.502;10.030;2023-03-16T13:12:22;2.33;;;0.60;;
77726;SDS011;68312;53.502;10.030;2023-03-16T13:15:00;2.03;;;0.40;;
77726;SDS011;68312;53.502;10.030;2023-03-16T13:17:42;2.38;;;0.50;;
77726;SDS011;68312;53.502;10.030;2023-03-16T13:22:44;1.65;;;0.45;;
77726;SDS011;68312;53.502;10.030;2023-03-16T13:27:51;0.93;;;0.40;;
77726;SDS011;68312;53.502;10.030;2023-03-16T13:30:24;1.55;;;0.40;;
77726;SDS011;68312;53.502;10.030;2023-03-16T13:32:59;3.40;;;0.55;;
77726;SDS011;68312;53.502;10.030;2023-03-16T13:35:46;1.85;;;0.43;;
77726;SDS011;68312;53.502;10.030;2023-03-16T13:38:18;2.13;;;0.60;;
77726;SDS011;68312;53.502;10.030;2023-03-16T13:40:51;2.78;;;0.60;;
77726;SDS011;68312;53.502;10.030;2023-03-16T13:43:23;0.65;;;0.40;;
77726;SDS011;68312;53.502;10.030;2023-03-16T13:45:56;1.00;;;0.40;;
77726;SDS011;68312;53.502;10.030;2023-03-16T13:48:23;1.60;;;0.43;;
77726;SDS011;68312;53.502;10.030;2023-03-16T13:50:53;1.23;;;0.40;;
77726;SDS011;68312;53.502;10.030;2023-03-16T13:53:22;3.67;;;0.70;;
77726;SDS011;68312;53.502;10.030;2023-03-16T13:55:54;2.22;;;0.50;;
77726;SDS011;68312;53.502;10.030;2023-03-16T14:01:04;2.35;;;0.50;;
77726;SDS011;68312;53.502;10.030;2023-03-16T14:03:51;2.92;;;0.50;;
77726;SDS011;68312;53.502;10.030;2023-03-16T14:06:21;3.83;;;0.70;;
77726;SDS011;68312;53.502;10.030;2023-03-16T14:08:56;1.23;;;0.40;;
77726;SDS011;68312;53.502;10.030;2023-03-16T14:11:28;1.60;;;0.50;;
77726;SDS011;68312;53.502;10.030;2023-03-16T14:13:55;1.52;;;0.40;;
77726;SDS011;68312;53.502;10.030;2023-03-16T14:16:25;3.25;;;0.60;;
77726;SDS011;68312;53.502;10.030;2023-03-16T14:18:56;2.55;;;0.50;;
77726;SDS011;68312;53.502;10.030;2023-03-16T14:21:28;3.80;;;0.57;;
77726;SDS011;68312;53.502;10.030;2023-03-16T14:23:59;1.55;;;0.50;;
77726;SDS011;68312;53.502;10.030;2023-03-16T14:26:40;1.08;;;0.43;;
77726;SDS011;68312;53.502;10.030;2023-03-16T14:29:22;1.05;;;0.73;;
77726;SDS011;68312;53.502;10.030;2023-03-16T14:31:54;0.50;;;0.30;;
77726;SDS011;68312;53.502;10.030;2023-03-16T14:34:34;1.65;;;0.40;;
77726;SDS011;68312;53.502;10.030;2023-03-16T14:37:10;2.42;;;0.60;;
77726;SDS011;68312;53.502;10.030;2023-03-16T14:39:43;1.08;;;0.43;;
77726;SDS011;68312;53.502;10.030;2023-03-16T14:42:29;3.17;;;0.70;;
77726;SDS011;68312;53.502;10.030;2023-03-16T14:44:59;3.38;;;0.50;;
77726;SDS011;68312;53.502;10.030;2023-03-16T14:47:34;1.08;;;0.40;;
77726;SDS011;68312;53.502;10.030;2023-03-16T14:50:11;1.50;;;0.80;;
77726;SDS011;68312;53.502;10.030;2023-03-16T14:52:45;1.25;;;0.60;;
77726;SDS011;68312;53.502;10.030;2023-03-16T14:55:13;1.80;;;0.80;;
77726;SDS011;68312;53.502;10.030;2023-03-16T14:57:43;2.22;;;0.50;;
77726;SDS011;68312;53.502;10.030;2023-03-16T15:00:11;3.05;;;0.40;;
77726;SDS011;68312;53.502;10.030;2023-03-16T15:02:41;0.98;;;0.60;;
77726;SDS011;68312;53.502;10.030;2023-03-16T15:05:26;3.75;;;0.63;;
77726;SDS011;68312;53.502;10.030;2023-03-16T15:07:59;1.85;;;0.45;;
77726;SDS011;68312;53.502;10.030;2023-03-16T15:10:27;2.35;;;0.50;;
77726;SDS011;68312;53.502;10.030;2023-03-16T15:12:57;1.00;;;0.40;;
77726;SDS011;68312;53.502;10.030;2023-03-16T15:15:38;1.08;;;0.50;;
77726;SDS011;68312;53.502;10.030;2023-03-16T15:18:06;2.40;;;0.43;;
77726;SDS011;68312;53.502;10.030;2023-03-16T15:20:33;2.70;;;0.60;;
77726;SDS011;68312;53.502;10.030;2023-03-16T15:23:09;1.35;;;0.40;;
77726;SDS011;68312;53.502;10.030;2023-03-16T15:25:44;1.58;;;0.52;;
77726;SDS011;68312;53.502;10.030;2023-03-16T15:30:46;1.40;;;0.50;;
77726;SDS011;68312;53.502;10.030;2023-03-16T15:33:26;2.28;;;0.65;;
77726;SDS011;68312;53.502;10.030;2023-03-16T15:35:54;3.13;;;0.43;;
77726;SDS011;68312;53.502;10.030;2023-03-16T15:43:25;1.70;;;0.40;;
77726;SDS011;68312;53.502;10.030;2023-03-16T15:45:55;2.75;;;0.43;;
77726;SDS011;68312;53.502;10.030;2023-03-16T15:48:23;0.80;;;0.30;;
77726;SDS011;68312;53.502;10.030;2023-03-16T15:50:51;0.90;;;0.30;;
77726;SDS011;68312;53.502;10.030;2023-03-16T15:53:25;2.47;;;0.60;;
77726;SDS011;68312;53.502;10.030;2023-03-16T15:56:02;2.25;;;0.52;;
77726;SDS011;68312;53.502;10.030;2023-03-16T15:58:35;2.50;;;0.43;;
77726;SDS011;68312;53.502;10.030;2023-03-16T16:01:06;1.40;;;0.73;;
77726;SDS011;68312;53.502;10.030;2023-03-16T16:03:51;0.85;;;0.47;;
77726;SDS011;68312;53.502;10.030;2023-03-16T16:06:19;1.13;;;0.40;;
77726;SDS011;68312;53.502;10.030;2023-03-16T16:08:54;0.98;;;0.38;;
77726;SDS011;68312;53.502;10.030;2023-03-16T16:11:22;5.47;;;0.73;;
77726;SDS011;68312;53.502;10.030;2023-03-16T16:13:53;1.40;;;0.40;;
77726;SDS011;68312;53.502;10.030;2023-03-16T16:16:24;1.88;;;0.47;;
77726;SDS011;68312;53.502;10.030;2023-03-16T16:18:54;1.33;;;0.40;;
77726;SDS011;68312;53.502;10.030;2023-03-16T16:21:24;4.55;;;0.50;;
77726;SDS011;68312;53.502;10.030;2023-03-16T16:23:55;1.98;;;0.40;;
77726;SDS011;68312;53.502;10.030;2023-03-16T16:26:27;2.47;;;0.47;;
77726;SDS011;68312;53.502;10.030;2023-03-16T16:29:05;3.40;;;0.40;;
77726;SDS011;68312;53.502;10.030;2023-03-16T16:31:41;2.08;;;0.55;;
77726;SDS011;68312;53.502;10.030;2023-03-16T16:34:11;1.45;;;0.55;;
77726;SDS011;68312;53.502;10.030;2023-03-16T16:36:44;0.82;;;0.32;;